sensor_id;sensor_type;location;lat;lon;timestamp;pressure;altitude;pressure_sealevel;temperature;humidity
72285;BME280;60220;53.552;10.092;2023-04-24T00:01:17;99806.06;;;12.63;82.58
72285;BME280;60220;53.552;10.092;2023-04-24T00:03:44;99795.22;;;12.95;80.42
72285;BME280;60220;53.552;10.092;2023-04-24T00:06:11;99792.59;;;13.18;79.87
72285;BME280;60220;53.552;10.092;2023-04-24T00:08:38;99792.44;;;13.21;78.97
72285;BME280;60220;53.552;10.092;2023-04-24T00:11:06;99794.97;;;13.01;79.97
72285;BME280;60220;53.552;10.092;2023-04-24T00:13:32;99781.69;;;13.49;77.98
72285;BME280;60220;53.552;10.092;2023-04-24T00:15:59;99772.22;;;13.22;78.12
72285;BME280;60220;53.552;10.092;2023-04-24T00:18:26;99777.69;;;13.17;79.45
72285;BME280;60220;53.552;10.092;2023-04-24T00:20:53;99775.03;;;13.17;79.09
72285;BME280;60220;53.552;10.092;2023-04-24T00:23:20;99774.06;;;13.42;78.14
72285;BME280;60220;53.552;10.092;2023-04-24T00:25:46;99769.28;;;13.51;76.99
72285;BME280;60220;53.552;10.092;2023-04-24T00:28:16;99759.59;;;13.30;77.96
72285;BME280;60220;53.552;10.092;2023-04-24T00:30:42;99765.13;;;13.46;77.20
72285;BME280;60220;53.552;10.092;2023-04-24T00:33:09;99769.28;;;13.06;78.80
72285;BME280;60220;53.552;10.092;2023-04-24T00:35:36;99757.22;;;13.01;78.89
72285;BME280;60220;53.552;10.092;2023-04-24T00:38:05;99761.56;;;13.02;79.03
72285;BME280;60220;53.552;10.092;2023-04-24T00:40:31;99751.22;;;12.97;79.92
72285;BME280;60220;53.552;10.092;2023-04-24T00:42:58;99752.44;;;13.10;78.92
72285;BME280;60220;53.552;10.092;2023-04-24T00:45:26;99747.53;;;12.79;79.37
72285;BME280;60220;53.552;10.092;2023-04-24T00:47:54;99746.03;;;12.72;80.21
72285;BME280;60220;53.552;10.092;2023-04-24T00:50:22;99755.59;;;12.75;80.21
72285;BME280;60220;53.552;10.092;2023-04-24T00:52:50;99747.69;;;12.75;80.02
72285;BME280;60220;53.552;10.092;2023-04-24T00:55:17;99757.97;;;12.58;80.46
72285;BME280;60220;53.552;10.092;2023-04-24T00:57:46;99749.75;;;12.43;81.37
72285;BME280;60220;53.552;10.092;2023-04-24T01:00:14;99751.13;;;12.54;81.63
72285;BME280;60220;53.552;10.092;2023-04-24T01:02:43;99758.28;;;12.73;80.38
72285;BME280;60220;53.552;10.092;2023-04-24T01:05:11;99747.31;;;12.61;80.38
72285;BME280;60220;53.552;10.092;2023-04-24T01:07:40;99752.06;;;12.51;80.21
72285;BME280;60220;53.552;10.092;2023-04-24T01:10:09;99746.94;;;12.48;81.46
72285;BME280;60220;53.552;10.092;2023-04-24T01:12:38;99745.50;;;12.63;80.88
72285;BME280;60220;53.552;10.092;2023-04-24T01:15:06;99747.28;;;12.39;81.84
72285;BME280;60220;53.552;10.092;2023-04-24T01:17:35;99744.53;;;12.65;80.55
72285;BME280;60220;53.552;10.092;2023-04-24T01:20:04;99756.03;;;12.39;81.01
72285;BME280;60220;53.552;10.092;2023-04-24T01:22:33;99755.06;;;12.42;81.07
72285;BME280;60220;53.552;10.092;2023-04-24T01:25:03;99750.66;;;12.42;81.03
72285;BME280;60220;53.552;10.092;2023-04-24T01:27:32;99743.91;;;12.59;81.21
72285;BME280;60220;53.552;10.092;2023-04-24T01:29:58;99747.06;;;12.45;81.06
72285;BME280;60220;53.552;10.092;2023-04-24T01:32:26;99737.94;;;12.30;81.10
72285;BME280;60220;53.552;10.092;2023-04-24T01:34:54;99747.09;;;12.20;81.18
72285;BME280;60220;53.552;10.092;2023-04-24T01:37:21;99734.16;;;12.37;80.96
72285;BME280;60220;53.552;10.092;2023-04-24T01:39:51;99741.25;;;12.35;80.83
72285;BME280;60220;53.552;10.092;2023-04-24T01:42:18;99745.03;;;12.28;81.78
72285;BME280;60220;53.552;10.092;2023-04-24T01:44:44;99745.81;;;12.55;81.07
72285;BME280;60220;53.552;10.092;2023-04-24T01:47:11;99725.81;;;12.73;79.93
72285;BME280;60220;53.552;10.092;2023-04-24T01:49:40;99729.97;;;12.32;80.88
72285;BME280;60220;53.552;10.092;2023-04-24T01:52:09;99722.34;;;12.49;81.07
72285;BME280;60220;53.552;10.092;2023-04-24T01:54:36;99723.00;;;12.31;80.75
72285;BME280;60220;53.552;10.092;2023-04-24T01:57:07;99715.25;;;12.26;80.80
72285;BME280;60220;53.552;10.092;2023-04-24T01:59:34;99720.31;;;12.32;79.89
72285;BME280;60220;53.552;10.092;2023-04-24T02:02:01;99717.75;;;12.06;79.95
72285;BME280;60220;53.552;10.092;2023-04-24T02:04:28;99715.06;;;12.32;79.38
72285;BME280;60220;53.552;10.092;2023-04-24T02:06:55;99708.31;;;12.25;78.92
72285;BME280;60220;53.552;10.092;2023-04-24T02:09:21;99709.09;;;12.50;78.43
72285;BME280;60220;53.552;10.092;2023-04-24T02:11:50;99700.06;;;12.58;77.42
72285;BME280;60220;53.552;10.092;2023-04-24T02:14:18;99701.16;;;12.52;77.44
72285;BME280;60220;53.552;10.092;2023-04-24T02:16:45;99706.69;;;12.21;78.51
72285;BME280;60220;53.552;10.092;2023-04-24T02:19:12;99699.91;;;12.39;78.01
72285;BME280;60220;53.552;10.092;2023-04-24T02:21:38;99708.19;;;12.28;78.07
72285;BME280;60220;53.552;10.092;2023-04-24T02:24:07;99710.31;;;12.42;78.23
72285;BME280;60220;53.552;10.092;2023-04-24T02:26:36;99706.06;;;12.61;77.01
72285;BME280;60220;53.552;10.092;2023-04-24T02:29:03;99725.69;;;12.29;78.05
72285;BME280;60220;53.552;10.092;2023-04-24T02:31:31;99724.31;;;12.19;78.47
72285;BME280;60220;53.552;10.092;2023-04-24T02:33:57;99723.88;;;12.06;79.28
72285;BME280;60220;53.552;10.092;2023-04-24T02:36:25;99719.25;;;12.13;78.85
72285;BME280;60220;53.552;10.092;2023-04-24T02:38:51;99711.25;;;12.16;79.40
72285;BME280;60220;53.552;10.092;2023-04-24T02:41:18;99708.94;;;12.07;78.66
72285;BME280;60220;53.552;10.092;2023-04-24T02:43:45;99712.59;;;11.78;79.77
72285;BME280;60220;53.552;10.092;2023-04-24T02:46:12;99707.13;;;12.09;79.13
72285;BME280;60220;53.552;10.092;2023-04-24T02:48:42;99712.56;;;11.80;79.01
72285;BME280;60220;53.552;10.092;2023-04-24T02:51:11;99713.47;;;11.79;79.46
72285;BME280;60220;53.552;10.092;2023-04-24T02:53:38;99715.19;;;11.80;79.30
72285;BME280;60220;53.552;10.092;2023-04-24T02:56:07;99696.84;;;12.03;77.88
72285;BME280;60220;53.552;10.092;2023-04-24T02:58:34;99706.78;;;11.69;78.89
72285;BME280;60220;53.552;10.092;2023-04-24T03:01:03;99704.75;;;11.77;79.13
72285;BME280;60220;53.552;10.092;2023-04-24T03:03:30;99696.94;;;12.00;78.41
72285;BME280;60220;53.552;10.092;2023-04-24T03:05:58;99694.72;;;11.61;78.68
72285;BME280;60220;53.552;10.092;2023-04-24T03:08:25;99694.84;;;11.58;79.51
72285;BME280;60220;53.552;10.092;2023-04-24T03:10:51;99692.63;;;11.46;79.10
72285;BME280;60220;53.552;10.092;2023-04-24T03:13:18;99695.25;;;11.46;79.49
72285;BME280;60220;53.552;10.092;2023-04-24T03:15:45;99688.19;;;11.48;78.67
72285;BME280;60220;53.552;10.092;2023-04-24T03:18:15;99695.16;;;11.49;78.32
72285;BME280;60220;53.552;10.092;2023-04-24T03:20:42;99691.75;;;11.46;78.25
72285;BME280;60220;53.552;10.092;2023-04-24T03:23:12;99694.81;;;11.34;78.17
72285;BME280;60220;53.552;10.092;2023-04-24T03:25:41;99698.03;;;11.42;77.58
72285;BME280;60220;53.552;10.092;2023-04-24T03:28:09;99691.84;;;11.44;77.06
72285;BME280;60220;53.552;10.092;2023-04-24T03:30:35;99692.41;;;11.26;77.99
72285;BME280;60220;53.552;10.092;2023-04-24T03:33:02;99694.13;;;11.27;77.92
72285;BME280;60220;53.552;10.092;2023-04-24T03:35:29;99689.75;;;11.28;77.32
72285;BME280;60220;53.552;10.092;2023-04-24T03:37:56;99689.91;;;11.49;76.37
72285;BME280;60220;53.552;10.092;2023-04-24T03:40:24;99698.81;;;11.45;75.68
72285;BME280;60220;53.552;10.092;2023-04-24T03:42:51;99691.66;;;11.22;76.53
72285;BME280;60220;53.552;10.092;2023-04-24T03:45:18;99693.13;;;11.05;76.96
72285;BME280;60220;53.552;10.092;2023-04-24T03:47:47;99696.22;;;11.44;75.98
72285;BME280;60220;53.552;10.092;2023-04-24T03:50:14;99694.88;;;11.04;76.15
72285;BME280;60220;53.552;10.092;2023-04-24T03:52:40;99693.16;;;11.56;75.31
72285;BME280;60220;53.552;10.092;2023-04-24T03:55:08;99692.56;;;11.48;74.91
72285;BME280;60220;53.552;10.092;2023-04-24T03:57:39;99692.53;;;11.23;75.65
72285;BME280;60220;53.552;10.092;2023-04-24T04:00:07;99692.69;;;11.45;74.80
72285;BME280;60220;53.552;10.092;2023-04-24T04:02:34;99694.19;;;10.99;75.91
72285;BME280;60220;53.552;10.092;2023-04-24T04:05:01;99692.44;;;10.98;76.54
72285;BME280;60220;53.552;10.092;2023-04-24T04:07:27;99687.28;;;11.23;74.79
72285;BME280;60220;53.552;10.092;2023-04-24T04:09:55;99688.88;;;11.27;74.88
72285;BME280;60220;53.552;10.092;2023-04-24T04:12:21;99686.31;;;10.99;74.12
72285;BME280;60220;53.552;10.092;2023-04-24T04:14:51;99685.97;;;11.10;73.81
72285;BME280;60220;53.552;10.092;2023-04-24T04:17:19;99682.13;;;10.92;73.42
72285;BME280;60220;53.552;10.092;2023-04-24T04:19:46;99681.31;;;11.44;72.54
72285;BME280;60220;53.552;10.092;2023-04-24T04:22:13;99690.66;;;11.00;72.94
72285;BME280;60220;53.552;10.092;2023-04-24T04:24:39;99689.84;;;11.25;72.59
72285;BME280;60220;53.552;10.092;2023-04-24T04:27:06;99683.25;;;11.11;72.32
72285;BME280;60220;53.552;10.092;2023-04-24T04:29:33;99686.88;;;11.09;71.98
72285;BME280;60220;53.552;10.092;2023-04-24T04:32:02;99684.28;;;11.07;71.83
72285;BME280;60220;53.552;10.092;2023-04-24T04:34:29;99692.91;;;11.11;71.96
72285;BME280;60220;53.552;10.092;2023-04-24T04:36:59;99694.63;;;11.12;71.48
72285;BME280;60220;53.552;10.092;2023-04-24T04:39:27;99703.06;;;11.21;70.75
72285;BME280;60220;53.552;10.092;2023-04-24T04:41:55;99701.81;;;11.33;70.27
72285;BME280;60220;53.552;10.092;2023-04-24T04:44:22;99706.38;;;10.72;71.06
72285;BME280;60220;53.552;10.092;2023-04-24T04:46:49;99699.50;;;11.24;70.22
72285;BME280;60220;53.552;10.092;2023-04-24T04:49:19;99705.28;;;11.35;69.23
72285;BME280;60220;53.552;10.092;2023-04-24T04:51:49;99705.78;;;11.20;69.44
72285;BME280;60220;53.552;10.092;2023-04-24T04:54:16;99706.31;;;11.56;68.73
72285;BME280;60220;53.552;10.092;2023-04-24T04:56:45;99710.00;;;11.24;68.72
72285;BME280;60220;53.552;10.092;2023-04-24T04:59:12;99711.09;;;10.91;69.77
72285;BME280;60220;53.552;10.092;2023-04-24T05:01:39;99705.25;;;11.09;68.79
72285;BME280;60220;53.552;10.092;2023-04-24T05:04:09;99699.19;;;11.33;67.81
72285;BME280;60220;53.552;10.092;2023-04-24T05:06:39;99702.66;;;11.35;67.11
72285;BME280;60220;53.552;10.092;2023-04-24T05:09:06;99701.50;;;11.16;68.00
72285;BME280;60220;53.552;10.092;2023-04-24T05:11:33;99700.09;;;11.32;67.44
72285;BME280;60220;53.552;10.092;2023-04-24T05:13:59;99702.53;;;11.38;67.56
72285;BME280;60220;53.552;10.092;2023-04-24T05:16:26;99697.41;;;11.35;66.75
72285;BME280;60220;53.552;10.092;2023-04-24T05:18:53;99702.41;;;11.41;67.26
72285;BME280;60220;53.552;10.092;2023-04-24T05:21:20;99710.41;;;11.38;67.15
72285;BME280;60220;53.552;10.092;2023-04-24T05:23:48;99704.91;;;11.46;66.87
72285;BME280;60220;53.552;10.092;2023-04-24T05:26:17;99698.69;;;11.48;66.83
72285;BME280;60220;53.552;10.092;2023-04-24T05:28:44;99697.28;;;11.38;67.60
72285;BME280;60220;53.552;10.092;2023-04-24T05:31:11;99699.19;;;11.33;67.25
72285;BME280;60220;53.552;10.092;2023-04-24T05:33:39;99695.13;;;11.25;67.35
72285;BME280;60220;53.552;10.092;2023-04-24T05:36:06;99700.41;;;11.49;67.00
72285;BME280;60220;53.552;10.092;2023-04-24T05:38:33;99698.19;;;11.63;66.35
72285;BME280;60220;53.552;10.092;2023-04-24T05:41:01;99703.56;;;11.60;66.34
72285;BME280;60220;53.552;10.092;2023-04-24T05:43:28;99703.31;;;11.93;66.37
72285;BME280;60220;53.552;10.092;2023-04-24T05:45:55;99702.84;;;11.55;66.22
72285;BME280;60220;53.552;10.092;2023-04-24T05:48:22;99714.34;;;11.79;66.18
72285;BME280;60220;53.552;10.092;2023-04-24T05:50:51;99710.94;;;11.76;66.14
72285;BME280;60220;53.552;10.092;2023-04-24T05:53:18;99713.16;;;11.88;65.56
72285;BME280;60220;53.552;10.092;2023-04-24T05:55:45;99711.91;;;11.72;65.80
72285;BME280;60220;53.552;10.092;2023-04-24T05:58:13;99712.81;;;12.22;64.60
72285;BME280;60220;53.552;10.092;2023-04-24T06:00:40;99714.06;;;11.87;65.10
72285;BME280;60220;53.552;10.092;2023-04-24T06:03:09;99715.78;;;11.88;65.11
72285;BME280;60220;53.552;10.092;2023-04-24T06:05:35;99700.69;;;11.93;64.87
72285;BME280;60220;53.552;10.092;2023-04-24T06:08:02;99715.59;;;12.17;63.61
72285;BME280;60220;53.552;10.092;2023-04-24T06:10:31;99717.00;;;11.78;64.54
72285;BME280;60220;53.552;10.092;2023-04-24T06:12:58;99713.28;;;11.57;65.83
72285;BME280;60220;53.552;10.092;2023-04-24T06:15:29;99709.09;;;11.51;65.42
72285;BME280;60220;53.552;10.092;2023-04-24T06:17:58;99719.38;;;11.85;65.42
72285;BME280;60220;53.552;10.092;2023-04-24T06:20:27;99715.44;;;11.71;65.11
72285;BME280;60220;53.552;10.092;2023-04-24T06:22:55;99715.00;;;12.34;64.19
72285;BME280;60220;53.552;10.092;2023-04-24T06:25:21;99727.81;;;11.95;64.08
72285;BME280;60220;53.552;10.092;2023-04-24T06:27:48;99708.84;;;12.35;64.13
72285;BME280;60220;53.552;10.092;2023-04-24T06:30:15;99723.16;;;11.77;63.80
72285;BME280;60220;53.552;10.092;2023-04-24T06:32:43;99722.59;;;12.41;63.05
72285;BME280;60220;53.552;10.092;2023-04-24T06:35:10;99720.41;;;12.76;62.84
72285;BME280;60220;53.552;10.092;2023-04-24T06:37:41;99727.56;;;12.01;63.13
72285;BME280;60220;53.552;10.092;2023-04-24T06:40:09;99726.03;;;11.95;63.83
72285;BME280;60220;53.552;10.092;2023-04-24T06:42:36;99724.72;;;12.32;63.34
72285;BME280;60220;53.552;10.092;2023-04-24T06:45:03;99725.47;;;12.11;63.23
72285;BME280;60220;53.552;10.092;2023-04-24T06:47:30;99720.16;;;12.12;63.42
72285;BME280;60220;53.552;10.092;2023-04-24T06:49:58;99734.47;;;12.05;63.48
72285;BME280;60220;53.552;10.092;2023-04-24T06:52:25;99721.47;;;12.48;62.36
72285;BME280;60220;53.552;10.092;2023-04-24T06:54:52;99721.91;;;12.36;62.08
72285;BME280;60220;53.552;10.092;2023-04-24T06:57:19;99727.19;;;12.36;62.18
72285;BME280;60220;53.552;10.092;2023-04-24T06:59:46;99722.56;;;12.89;60.74
72285;BME280;60220;53.552;10.092;2023-04-24T07:02:13;99715.97;;;13.23;60.30
72285;BME280;60220;53.552;10.092;2023-04-24T07:04:42;99717.94;;;12.49;61.49
72285;BME280;60220;53.552;10.092;2023-04-24T07:07:11;99723.75;;;12.58;61.21
72285;BME280;60220;53.552;10.092;2023-04-24T07:09:40;99724.84;;;13.64;59.42
72285;BME280;60220;53.552;10.092;2023-04-24T07:12:07;99729.91;;;13.68;58.44
72285;BME280;60220;53.552;10.092;2023-04-24T07:14:38;99729.81;;;13.50;58.89
72285;BME280;60220;53.552;10.092;2023-04-24T07:17:04;99729.44;;;13.15;59.66
72285;BME280;60220;53.552;10.092;2023-04-24T07:19:34;99727.75;;;12.91;60.25
72285;BME280;60220;53.552;10.092;2023-04-24T07:22:01;99730.06;;;13.44;58.37
72285;BME280;60220;53.552;10.092;2023-04-24T07:24:30;99732.66;;;13.00;59.54
72285;BME280;60220;53.552;10.092;2023-04-24T07:26:57;99735.75;;;13.11;58.66
72285;BME280;60220;53.552;10.092;2023-04-24T07:29:26;99738.31;;;12.68;60.01
72285;BME280;60220;53.552;10.092;2023-04-24T07:31:55;99733.25;;;12.62;60.28
72285;BME280;60220;53.552;10.092;2023-04-24T07:34:22;99739.50;;;12.59;60.64
72285;BME280;60220;53.552;10.092;2023-04-24T07:36:49;99741.50;;;12.76;59.83
72285;BME280;60220;53.552;10.092;2023-04-24T07:39:16;99737.25;;;12.95;60.16
72285;BME280;60220;53.552;10.092;2023-04-24T07:41:44;99748.31;;;13.05;58.85
72285;BME280;60220;53.552;10.092;2023-04-24T07:44:11;99740.53;;;13.00;59.32
72285;BME280;60220;53.552;10.092;2023-04-24T07:46:37;99753.47;;;13.06;58.69
72285;BME280;60220;53.552;10.092;2023-04-24T07:49:06;99751.63;;;14.15;56.43
72285;BME280;60220;53.552;10.092;2023-04-24T07:51:33;99763.16;;;12.84;57.75
72285;BME280;60220;53.552;10.092;2023-04-24T07:54:09;99762.41;;;13.25;58.23
72285;BME280;60220;53.552;10.092;2023-04-24T07:56:36;99761.97;;;12.91;59.05
72285;BME280;60220;53.552;10.092;2023-04-24T07:59:05;99767.56;;;13.05;59.61
72285;BME280;60220;53.552;10.092;2023-04-24T08:01:34;99760.84;;;12.98;59.34
72285;BME280;60220;53.552;10.092;2023-04-24T08:04:01;99767.00;;;13.20;59.08
72285;BME280;60220;53.552;10.092;2023-04-24T08:06:28;99748.13;;;12.86;59.55
72285;BME280;60220;53.552;10.092;2023-04-24T08:08:57;99752.06;;;13.43;59.17
72285;BME280;60220;53.552;10.092;2023-04-24T08:11:24;99751.34;;;12.94;58.65
72285;BME280;60220;53.552;10.092;2023-04-24T08:13:50;99767.72;;;12.79;59.50
72285;BME280;60220;53.552;10.092;2023-04-24T08:16:18;99771.13;;;13.27;57.92
72285;BME280;60220;53.552;10.092;2023-04-24T08:18:45;99767.31;;;13.78;57.59
72285;BME280;60220;53.552;10.092;2023-04-24T08:21:12;99772.78;;;13.30;57.80
72285;BME280;60220;53.552;10.092;2023-04-24T08:23:42;99774.28;;;12.67;59.28
72285;BME280;60220;53.552;10.092;2023-04-24T08:26:09;99787.50;;;12.66;59.43
72285;BME280;60220;53.552;10.092;2023-04-24T08:28:36;99782.06;;;12.22;60.68
72285;BME280;60220;53.552;10.092;2023-04-24T08:31:03;99788.09;;;12.74;60.74
72285;BME280;60220;53.552;10.092;2023-04-24T08:33:31;99792.84;;;12.64;60.36
72285;BME280;60220;53.552;10.092;2023-04-24T08:36:00;99787.84;;;12.57;59.92
72285;BME280;60220;53.552;10.092;2023-04-24T08:38:26;99791.13;;;12.63;61.39
72285;BME280;60220;53.552;10.092;2023-04-24T08:40:57;99790.09;;;12.67;60.64
72285;BME280;60220;53.552;10.092;2023-04-24T08:43:25;99798.84;;;12.91;59.92
72285;BME280;60220;53.552;10.092;2023-04-24T08:45:54;99794.44;;;12.91;59.75
72285;BME280;60220;53.552;10.092;2023-04-24T08:48:22;99796.81;;;12.01;61.13
72285;BME280;60220;53.552;10.092;2023-04-24T08:50:50;99796.59;;;12.34;60.99
72285;BME280;60220;53.552;10.092;2023-04-24T08:53:17;99801.63;;;12.40;60.86
72285;BME280;60220;53.552;10.092;2023-04-24T08:55:47;99789.91;;;12.48;59.71
72285;BME280;60220;53.552;10.092;2023-04-24T08:58:15;99796.75;;;12.77;60.01
72285;BME280;60220;53.552;10.092;2023-04-24T09:00:43;99800.66;;;12.42;60.11
72285;BME280;60220;53.552;10.092;2023-04-24T09:03:13;99800.81;;;12.63;58.40
72285;BME280;60220;53.552;10.092;2023-04-24T09:05:42;99800.28;;;12.28;59.64
72285;BME280;60220;53.552;10.092;2023-04-24T09:08:16;99796.63;;;12.80;59.12
72285;BME280;60220;53.552;10.092;2023-04-24T09:10:44;99805.72;;;12.72;59.39
72285;BME280;60220;53.552;10.092;2023-04-24T09:13:10;99806.31;;;12.80;58.71
72285;BME280;60220;53.552;10.092;2023-04-24T09:15:37;99805.28;;;13.07;59.51
72285;BME280;60220;53.552;10.092;2023-04-24T09:18:04;99798.94;;;13.13;59.82
72285;BME280;60220;53.552;10.092;2023-04-24T09:20:33;99805.06;;;13.13;58.61
72285;BME280;60220;53.552;10.092;2023-04-24T09:23:01;99817.38;;;14.00;56.83
72285;BME280;60220;53.552;10.092;2023-04-24T09:25:33;99808.25;;;12.75;57.98
72285;BME280;60220;53.552;10.092;2023-04-24T09:28:02;99811.22;;;12.66;59.66
72285;BME280;60220;53.552;10.092;2023-04-24T09:30:32;99815.91;;;12.81;59.51
72285;BME280;60220;53.552;10.092;2023-04-24T09:33:12;99822.63;;;12.41;60.87
72285;BME280;60220;53.552;10.092;2023-04-24T09:35:42;99817.97;;;12.96;59.82
72285;BME280;60220;53.552;10.092;2023-04-24T09:38:09;99811.34;;;13.09;58.48
72285;BME280;60220;53.552;10.092;2023-04-24T09:40:39;99812.41;;;12.32;61.16
72285;BME280;60220;53.552;10.092;2023-04-24T09:43:11;99816.94;;;12.54;60.48
72285;BME280;60220;53.552;10.092;2023-04-24T09:45:38;99820.19;;;12.35;60.17
72285;BME280;60220;53.552;10.092;2023-04-24T09:48:05;99812.97;;;12.65;59.56
72285;BME280;60220;53.552;10.092;2023-04-24T09:50:35;99814.91;;;12.85;59.03
72285;BME280;60220;53.552;10.092;2023-04-24T09:53:05;99817.63;;;13.05;59.35
72285;BME280;60220;53.552;10.092;2023-04-24T09:55:42;99816.03;;;12.55;59.75
72285;BME280;60220;53.552;10.092;2023-04-24T09:58:13;99820.94;;;12.14;61.02
72285;BME280;60220;53.552;10.092;2023-04-24T10:00:40;99824.72;;;12.57;60.79
72285;BME280;60220;53.552;10.092;2023-04-24T10:03:07;99826.31;;;12.36;61.09
72285;BME280;60220;53.552;10.092;2023-04-24T10:05:37;99828.88;;;13.33;58.33
72285;BME280;60220;53.552;10.092;2023-04-24T10:08:05;99821.91;;;13.09;59.59
72285;BME280;60220;53.552;10.092;2023-04-24T10:10:40;99830.38;;;13.84;57.90
72285;BME280;60220;53.552;10.092;2023-04-24T10:13:08;99825.84;;;12.98;58.17
72285;BME280;60220;53.552;10.092;2023-04-24T10:15:35;99827.13;;;12.86;59.85
72285;BME280;60220;53.552;10.092;2023-04-24T10:18:04;99833.09;;;12.18;61.23
72285;BME280;60220;53.552;10.092;2023-04-24T10:20:33;99829.22;;;12.28;60.41
72285;BME280;60220;53.552;10.092;2023-04-24T10:23:00;99830.94;;;12.04;61.59
72285;BME280;60220;53.552;10.092;2023-04-24T10:25:31;99829.88;;;12.35;61.77
72285;BME280;60220;53.552;10.092;2023-04-24T10:28:00;99833.63;;;13.01;60.85
72285;BME280;60220;53.552;10.092;2023-04-24T10:30:31;99833.38;;;13.07;59.61
72285;BME280;60220;53.552;10.092;2023-04-24T10:33:00;99830.50;;;12.41;61.05
72285;BME280;60220;53.552;10.092;2023-04-24T10:35:30;99839.22;;;12.43;61.75
72285;BME280;60220;53.552;10.092;2023-04-24T10:38:00;99836.38;;;12.49;60.94
72285;BME280;60220;53.552;10.092;2023-04-24T10:40:31;99835.56;;;12.47;61.56
72285;BME280;60220;53.552;10.092;2023-04-24T10:43:01;99832.22;;;13.15;59.82
72285;BME280;60220;53.552;10.092;2023-04-24T10:45:31;99849.25;;;13.05;60.26
72285;BME280;60220;53.552;10.092;2023-04-24T10:47:59;99833.91;;;12.93;61.52
72285;BME280;60220;53.552;10.092;2023-04-24T10:50:27;99847.47;;;12.08;61.87
72285;BME280;60220;53.552;10.092;2023-04-24T10:53:05;99841.81;;;12.20;61.49
72285;BME280;60220;53.552;10.092;2023-04-24T10:55:44;99842.53;;;12.24;61.56
72285;BME280;60220;53.552;10.092;2023-04-24T10:58:16;99840.94;;;12.20;61.43
72285;BME280;60220;53.552;10.092;2023-04-24T11:00:55;99844.25;;;13.22;58.33
72285;BME280;60220;53.552;10.092;2023-04-24T11:03:24;99841.00;;;12.68;59.69
72285;BME280;60220;53.552;10.092;2023-04-24T11:05:54;99842.50;;;12.98;58.59
72285;BME280;60220;53.552;10.092;2023-04-24T11:08:23;99841.56;;;12.76;58.09
72285;BME280;60220;53.552;10.092;2023-04-24T11:11:01;99835.78;;;13.59;56.19
72285;BME280;60220;53.552;10.092;2023-04-24T11:16:32;99836.59;;;14.03;55.75
72285;BME280;60220;53.552;10.092;2023-04-24T11:19:04;99834.22;;;13.32;56.08
72285;BME280;60220;53.552;10.092;2023-04-24T11:21:32;99830.50;;;13.59;56.15
72285;BME280;60220;53.552;10.092;2023-04-24T11:27:12;99825.66;;;13.25;56.80
72285;BME280;60220;53.552;10.092;2023-04-24T11:29:45;99832.31;;;13.35;56.54
72285;BME280;60220;53.552;10.092;2023-04-24T11:32:24;99827.81;;;12.68;57.50
72285;BME280;60220;53.552;10.092;2023-04-24T11:34:53;99827.97;;;13.11;56.54
72285;BME280;60220;53.552;10.092;2023-04-24T11:37:21;99834.84;;;13.15;57.11
72285;BME280;60220;53.552;10.092;2023-04-24T11:39:50;99829.50;;;12.93;56.84
72285;BME280;60220;53.552;10.092;2023-04-24T11:42:18;99827.03;;;13.35;55.09
72285;BME280;60220;53.552;10.092;2023-04-24T11:44:46;99827.47;;;13.25;56.14
72285;BME280;60220;53.552;10.092;2023-04-24T11:47:12;99831.97;;;13.45;55.52
72285;BME280;60220;53.552;10.092;2023-04-24T11:49:40;99828.63;;;12.93;56.40
72285;BME280;60220;53.552;10.092;2023-04-24T11:52:07;99832.00;;;12.97;55.94
72285;BME280;60220;53.552;10.092;2023-04-24T11:54:34;99829.84;;;13.31;54.76
72285;BME280;60220;53.552;10.092;2023-04-24T11:57:04;99833.56;;;13.02;55.24
72285;BME280;60220;53.552;10.092;2023-04-24T11:59:35;99844.66;;;13.12;55.33
72285;BME280;60220;53.552;10.092;2023-04-24T12:02:05;99831.97;;;12.75;55.38
72285;BME280;60220;53.552;10.092;2023-04-24T12:04:41;99830.59;;;12.88;54.66
72285;BME280;60220;53.552;10.092;2023-04-24T12:07:08;99825.66;;;13.25;53.54
72285;BME280;60220;53.552;10.092;2023-04-24T12:09:42;99841.75;;;13.19;53.16
72285;BME280;60220;53.552;10.092;2023-04-24T12:12:08;99834.19;;;13.09;54.19
72285;BME280;60220;53.552;10.092;2023-04-24T12:14:42;99831.22;;;12.94;54.44
72285;BME280;60220;53.552;10.092;2023-04-24T12:17:09;99827.63;;;13.20;53.30
72285;BME280;60220;53.552;10.092;2023-04-24T12:19:36;99831.38;;;13.15;53.45
72285;BME280;60220;53.552;10.092;2023-04-24T12:22:05;99840.53;;;13.71;52.81
72285;BME280;60220;53.552;10.092;2023-04-24T12:24:32;99832.38;;;13.77;52.45
72285;BME280;60220;53.552;10.092;2023-04-24T12:26:59;99834.53;;;13.46;52.92
72285;BME280;60220;53.552;10.092;2023-04-24T12:29:29;99840.25;;;12.87;53.74
72285;BME280;60220;53.552;10.092;2023-04-24T12:31:55;99837.66;;;12.86;54.12
72285;BME280;60220;53.552;10.092;2023-04-24T12:34:25;99835.78;;;13.14;53.66
72285;BME280;60220;53.552;10.092;2023-04-24T12:36:54;99832.66;;;12.80;55.06
72285;BME280;60220;53.552;10.092;2023-04-24T12:39:22;99841.47;;;13.49;54.83
72285;BME280;60220;53.552;10.092;2023-04-24T12:41:55;99839.19;;;12.93;54.90
72285;BME280;60220;53.552;10.092;2023-04-24T12:44:30;99847.22;;;13.13;54.99
72285;BME280;60220;53.552;10.092;2023-04-24T12:47:00;99843.41;;;12.74;56.13
72285;BME280;60220;53.552;10.092;2023-04-24T12:49:26;99850.66;;;12.42;57.01
72285;BME280;60220;53.552;10.092;2023-04-24T12:51:53;99841.94;;;12.40;57.18
72285;BME280;60220;53.552;10.092;2023-04-24T12:54:20;99841.94;;;12.40;57.54
72285;BME280;60220;53.552;10.092;2023-04-24T12:56:48;99857.47;;;12.23;58.08
72285;BME280;60220;53.552;10.092;2023-04-24T12:59:15;99852.22;;;12.23;57.42
72285;BME280;60220;53.552;10.092;2023-04-24T13:01:44;99858.31;;;12.50;56.84